sensor_id;sensor_type;location;lat;lon;timestamp;pressure;altitude;pressure_sealevel;temperature;humidity
14902;BME280;7542;49.078;9.194;2023-04-24T00:00:50;97564.47;;;29.99;33.89
14902;BME280;7542;49.078;9.194;2023-04-24T00:01:53;97563.66;;;29.98;33.44
14902;BME280;7542;49.078;9.194;2023-04-24T00:02:55;97560.78;;;29.95;33.62
14902;BME280;7542;49.078;9.194;2023-04-24T00:03:59;97566.03;;;30.00;34.01
14902;BME280;7542;49.078;9.194;2023-04-24T00:05:02;97569.88;;;29.99;33.95
14902;BME280;7542;49.078;9.194;2023-04-24T00:06:05;97566.69;;;29.97;33.72
14902;BME280;7542;49.078;9.194;2023-04-24T00:07:11;97570.66;;;29.99;34.23
14902;BME280;7542;49.078;9.194;2023-04-24T00:08:15;97569.69;;;29.95;34.19
14902;BME280;7542;49.078;9.194;2023-04-24T00:09:31;97568.41;;;30.01;33.92
14902;BME280;7542;49.078;9.194;2023-04-24T00:10:33;97568.28;;;29.98;33.99
14902;BME280;7542;49.078;9.194;2023-04-24T00:11:36;97562.56;;;29.99;34.22
14902;BME280;7542;49.078;9.194;2023-04-24T00:12:52;97569.22;;;30.02;34.28
14902;BME280;7542;49.078;9.194;2023-04-24T00:13:54;97572.56;;;29.99;34.06
14902;BME280;7542;49.078;9.194;2023-04-24T00:14:56;97562.88;;;29.98;34.25
14902;BME280;7542;49.078;9.194;2023-04-24T00:15:59;97569.69;;;29.95;33.77
14902;BME280;7542;49.078;9.194;2023-04-24T00:17:01;97561.59;;;29.95;33.99
14902;BME280;7542;49.078;9.194;2023-04-24T00:18:04;97562.88;;;29.98;34.28
14902;BME280;7542;49.078;9.194;2023-04-24T00:19:06;97558.88;;;29.95;33.98
14902;BME280;7542;49.078;9.194;2023-04-24T00:20:09;97558.88;;;29.95;34.34
14902;BME280;7542;49.078;9.194;2023-04-24T00:21:13;97548.41;;;29.94;34.01
14902;BME280;7542;49.078;9.194;2023-04-24T00:22:17;97553.34;;;29.92;34.37
14902;BME280;7542;49.078;9.194;2023-04-24T00:23:20;97549.50;;;29.93;33.64
14902;BME280;7542;49.078;9.194;2023-04-24T00:24:22;97547.59;;;29.93;34.00
14902;BME280;7542;49.078;9.194;2023-04-24T00:25:24;97557.00;;;29.96;34.11
14902;BME280;7542;49.078;9.194;2023-04-24T00:26:27;97557.00;;;29.96;34.11
14902;BME280;7542;49.078;9.194;2023-04-24T00:27:29;97566.19;;;29.95;34.13
14902;BME280;7542;49.078;9.194;2023-04-24T00:28:31;97561.91;;;29.94;34.04
14902;BME280;7542;49.078;9.194;2023-04-24T00:29:33;97567.31;;;29.94;34.29
14902;BME280;7542;49.078;9.194;2023-04-24T00:30:35;97570.34;;;29.92;34.36
14902;BME280;7542;49.078;9.194;2023-04-24T00:31:38;97565.41;;;29.94;33.93
14902;BME280;7542;49.078;9.194;2023-04-24T00:32:43;97564.28;;;29.95;33.56
14902;BME280;7542;49.078;9.194;2023-04-24T00:33:45;97568.75;;;29.91;33.75
14902;BME280;7542;49.078;9.194;2023-04-24T00:34:47;97565.72;;;29.93;34.00
14902;BME280;7542;49.078;9.194;2023-04-24T00:35:50;97565.72;;;29.93;33.88
14902;BME280;7542;49.078;9.194;2023-04-24T00:36:53;97560.31;;;29.93;33.97
14902;BME280;7542;49.078;9.194;2023-04-24T00:37:55;97555.72;;;29.93;34.05
14902;BME280;7542;49.078;9.194;2023-04-24T00:38:57;97553.00;;;29.93;33.74
14902;BME280;7542;49.078;9.194;2023-04-24T00:39:59;97552.22;;;29.93;33.67
14902;BME280;7542;49.078;9.194;2023-04-24T00:41:01;97554.44;;;29.91;34.03
14902;BME280;7542;49.078;9.194;2023-04-24T00:42:03;97554.91;;;29.93;34.10
14902;BME280;7542;49.078;9.194;2023-04-24T00:43:08;97554.91;;;29.93;33.91
14902;BME280;7542;49.078;9.194;2023-04-24T00:44:11;97554.44;;;29.91;33.96
14902;BME280;7542;49.078;9.194;2023-04-24T00:45:15;97559.53;;;29.92;33.54
14902;BME280;7542;49.078;9.194;2023-04-24T00:46:17;97559.53;;;29.92;34.05
14902;BME280;7542;49.078;9.194;2023-04-24T00:47:19;97554.44;;;29.91;33.98
14902;BME280;7542;49.078;9.194;2023-04-24T00:48:25;97564.16;;;29.92;34.01
14902;BME280;7542;49.078;9.194;2023-04-24T00:49:27;97565.25;;;29.91;33.93
14902;BME280;7542;49.078;9.194;2023-04-24T00:50:31;97565.25;;;29.91;33.98
14902;BME280;7542;49.078;9.194;2023-04-24T00:51:36;97568.75;;;29.91;33.70
14902;BME280;7542;49.078;9.194;2023-04-24T00:52:38;97571.47;;;29.91;34.05
14902;BME280;7542;49.078;9.194;2023-04-24T00:53:44;97569.09;;;29.90;34.00
14902;BME280;7542;49.078;9.194;2023-04-24T00:54:46;97567.50;;;29.89;34.02
14902;BME280;7542;49.078;9.194;2023-04-24T00:55:50;97563.22;;;29.88;33.88
14902;BME280;7542;49.078;9.194;2023-04-24T00:56:55;97555.88;;;29.88;33.94
14902;BME280;7542;49.078;9.194;2023-04-24T00:57:59;97550.81;;;29.87;33.51
14902;BME280;7542;49.078;9.194;2023-04-24T00:59:01;97547.00;;;29.88;34.16
14902;BME280;7542;49.078;9.194;2023-04-24T01:00:05;97548.56;;;29.89;33.66
14902;BME280;7542;49.078;9.194;2023-04-24T01:01:12;97544.28;;;29.88;33.57
14902;BME280;7542;49.078;9.194;2023-04-24T01:02:14;97549.22;;;29.86;33.53
14902;BME280;7542;49.078;9.194;2023-04-24T01:03:19;97546.53;;;29.86;33.37
14902;BME280;7542;49.078;9.194;2023-04-24T01:04:22;97545.22;;;29.83;33.42
14902;BME280;7542;49.078;9.194;2023-04-24T01:05:31;97550.31;;;29.85;33.35
14902;BME280;7542;49.078;9.194;2023-04-24T01:06:43;97537.63;;;29.85;33.46
14902;BME280;7542;49.078;9.194;2023-04-24T01:07:46;97545.72;;;29.85;33.58
14902;BME280;7542;49.078;9.194;2023-04-24T01:09:04;97545.41;;;29.87;33.82
14902;BME280;7542;49.078;9.194;2023-04-24T01:10:08;97530.94;;;29.83;33.24
14902;BME280;7542;49.078;9.194;2023-04-24T01:11:11;97539.03;;;29.83;33.91
14902;BME280;7542;49.078;9.194;2023-04-24T01:12:15;97539.38;;;29.81;33.38
14902;BME280;7542;49.078;9.194;2023-04-24T01:13:19;97540.81;;;29.79;33.27
14902;BME280;7542;49.078;9.194;2023-04-24T01:14:22;97535.06;;;29.80;33.61
14902;BME280;7542;49.078;9.194;2023-04-24T01:15:26;97542.06;;;29.81;33.34
14902;BME280;7542;49.078;9.194;2023-04-24T01:16:29;97541.59;;;29.79;33.29
14902;BME280;7542;49.078;9.194;2023-04-24T01:17:31;97538.09;;;29.79;33.28
14902;BME280;7542;49.078;9.194;2023-04-24T01:18:38;97543.19;;;29.80;33.48
14902;BME280;7542;49.078;9.194;2023-04-24T01:19:40;97542.25;;;29.76;33.46
14902;BME280;7542;49.078;9.194;2023-04-24T01:20:44;97540.81;;;29.79;33.77
14902;BME280;7542;49.078;9.194;2023-04-24T01:21:53;97538.56;;;29.81;33.44
14902;BME280;7542;49.078;9.194;2023-04-24T01:22:56;97537.63;;;29.77;33.51
14902;BME280;7542;49.078;9.194;2023-04-24T01:24:01;97536.03;;;29.76;33.52
14902;BME280;7542;49.078;9.194;2023-04-24T01:25:04;97536.03;;;29.76;33.48
14902;BME280;7542;49.078;9.194;2023-04-24T01:26:06;97535.25;;;29.75;33.07
14902;BME280;7542;49.078;9.194;2023-04-24T01:27:12;97526.97;;;29.71;33.45
14902;BME280;7542;49.078;9.194;2023-04-24T01:28:15;97529.06;;;29.75;33.68
14902;BME280;7542;49.078;9.194;2023-04-24T01:29:18;97532.56;;;29.75;33.31
14902;BME280;7542;49.078;9.194;2023-04-24T01:30:20;97525.84;;;29.72;33.30
14902;BME280;7542;49.078;9.194;2023-04-24T01:31:23;97527.75;;;29.72;33.25
14902;BME280;7542;49.078;9.194;2023-04-24T01:32:27;97525.84;;;29.72;33.60
14902;BME280;7542;49.078;9.194;2023-04-24T01:33:30;97526.66;;;29.73;33.22
14902;BME280;7542;49.078;9.194;2023-04-24T01:34:33;97533.97;;;29.72;33.79
14902;BME280;7542;49.078;9.194;2023-04-24T01:35:37;97523.81;;;29.69;33.84
14902;BME280;7542;49.078;9.194;2023-04-24T01:36:41;97526.19;;;29.71;33.24
14902;BME280;7542;49.078;9.194;2023-04-24T01:37:44;97525.06;;;29.72;33.42
14902;BME280;7542;49.078;9.194;2023-04-24T01:38:47;97527.28;;;29.70;33.01
14902;BME280;7542;49.078;9.194;2023-04-24T01:39:49;97520.63;;;29.67;33.45
14902;BME280;7542;49.078;9.194;2023-04-24T01:40:52;97524.44;;;29.66;33.30
14902;BME280;7542;49.078;9.194;2023-04-24T01:41:55;97524.91;;;29.68;33.20
14902;BME280;7542;49.078;9.194;2023-04-24T01:42:58;97525.56;;;29.65;33.52
14902;BME280;7542;49.078;9.194;2023-04-24T01:44:01;97524.13;;;29.68;33.28
14902;BME280;7542;49.078;9.194;2023-04-24T01:45:04;97518.25;;;29.66;33.41
14902;BME280;7542;49.078;9.194;2023-04-24T01:46:07;97523.97;;;29.64;33.64
14902;BME280;7542;49.078;9.194;2023-04-24T01:47:10;97525.09;;;29.63;33.18
14902;BME280;7542;49.078;9.194;2023-04-24T01:48:13;97523.19;;;29.64;33.17
14902;BME280;7542;49.078;9.194;2023-04-24T01:49:15;97524.28;;;29.63;33.56
14902;BME280;7542;49.078;9.194;2023-04-24T01:50:18;97520.50;;;29.64;33.49
14902;BME280;7542;49.078;9.194;2023-04-24T01:51:20;97516.16;;;29.63;33.12
14902;BME280;7542;49.078;9.194;2023-04-24T01:52:23;97526.97;;;29.63;33.59
14902;BME280;7542;49.078;9.194;2023-04-24T01:53:25;97519.19;;;29.61;33.32
14902;BME280;7542;49.078;9.194;2023-04-24T01:54:27;97514.91;;;29.60;33.23
14902;BME280;7542;49.078;9.194;2023-04-24T01:55:29;97519.19;;;29.61;33.06
14902;BME280;7542;49.078;9.194;2023-04-24T01:56:33;97518.88;;;29.63;33.39
14902;BME280;7542;49.078;9.194;2023-04-24T01:57:40;97517.59;;;29.60;33.49
14902;BME280;7542;49.078;9.194;2023-04-24T01:58:42;97512.53;;;29.59;33.34
14902;BME280;7542;49.078;9.194;2023-04-24T01:59:45;97523.81;;;29.61;33.46
14902;BME280;7542;49.078;9.194;2023-04-24T02:00:47;97519.06;;;29.58;33.26
14902;BME280;7542;49.078;9.194;2023-04-24T02:01:49;97524.13;;;29.59;33.44
14902;BME280;7542;49.078;9.194;2023-04-24T02:02:51;97524.44;;;29.58;33.86
14902;BME280;7542;49.078;9.194;2023-04-24T02:03:53;97518.25;;;29.57;33.15
14902;BME280;7542;49.078;9.194;2023-04-24T02:04:56;97517.47;;;29.57;33.52
14902;BME280;7542;49.078;9.194;2023-04-24T02:05:59;97515.88;;;29.56;32.99
14902;BME280;7542;49.078;9.194;2023-04-24T02:07:00;97520.16;;;29.57;33.50
14902;BME280;7542;49.078;9.194;2023-04-24T02:08:02;97522.53;;;29.58;33.60
14902;BME280;7542;49.078;9.194;2023-04-24T02:09:05;97511.59;;;29.55;33.53
14902;BME280;7542;49.078;9.194;2023-04-24T02:10:08;97510.00;;;29.54;33.56
14902;BME280;7542;49.078;9.194;2023-04-24T02:11:10;97512.38;;;29.55;33.27
14902;BME280;7542;49.078;9.194;2023-04-24T02:12:12;97506.81;;;29.52;33.57
14902;BME280;7542;49.078;9.194;2023-04-24T02:13:13;97511.59;;;29.55;33.54
14902;BME280;7542;49.078;9.194;2023-04-24T02:14:15;97513.50;;;29.54;33.51
14902;BME280;7542;49.078;9.194;2023-04-24T02:15:18;97510.31;;;29.52;33.48
14902;BME280;7542;49.078;9.194;2023-04-24T02:16:20;97507.13;;;29.50;33.17
14902;BME280;7542;49.078;9.194;2023-04-24T02:17:22;97510.31;;;29.52;33.67
14902;BME280;7542;49.078;9.194;2023-04-24T02:18:24;97503.31;;;29.51;33.68
14902;BME280;7542;49.078;9.194;2023-04-24T02:19:26;97501.72;;;29.50;33.49
14902;BME280;7542;49.078;9.194;2023-04-24T02:20:28;97501.72;;;29.50;33.56
14902;BME280;7542;49.078;9.194;2023-04-24T02:21:30;97509.03;;;29.50;33.11
14902;BME280;7542;49.078;9.194;2023-04-24T02:22:34;97509.03;;;29.50;33.66
14902;BME280;7542;49.078;9.194;2023-04-24T02:23:37;97510.16;;;29.49;33.44
14902;BME280;7542;49.078;9.194;2023-04-24T02:24:39;97510.44;;;29.47;32.94
14902;BME280;7542;49.078;9.194;2023-04-24T02:25:42;97507.47;;;29.49;33.46
14902;BME280;7542;49.078;9.194;2023-04-24T02:26:45;97514.75;;;29.48;33.17
14902;BME280;7542;49.078;9.194;2023-04-24T02:27:47;97511.28;;;29.48;33.33
14902;BME280;7542;49.078;9.194;2023-04-24T02:28:49;97508.88;;;29.46;33.22
14902;BME280;7542;49.078;9.194;2023-04-24T02:29:51;97518.09;;;29.45;33.37
14902;BME280;7542;49.078;9.194;2023-04-24T02:30:53;97510.31;;;29.43;33.59
14902;BME280;7542;49.078;9.194;2023-04-24T02:31:55;97518.09;;;29.45;33.15
14902;BME280;7542;49.078;9.194;2023-04-24T02:32:57;97514.59;;;29.44;33.52
14902;BME280;7542;49.078;9.194;2023-04-24T02:33:59;97516.50;;;29.44;33.56
14902;BME280;7542;49.078;9.194;2023-04-24T02:35:01;97514.59;;;29.44;33.19
14902;BME280;7542;49.078;9.194;2023-04-24T02:36:04;97522.22;;;29.42;32.94
14902;BME280;7542;49.078;9.194;2023-04-24T02:37:06;97520.13;;;29.39;33.52
14902;BME280;7542;49.078;9.194;2023-04-24T02:38:08;97518.72;;;29.42;33.61
14902;BME280;7542;49.078;9.194;2023-04-24T02:39:10;97519.03;;;29.40;33.21
14902;BME280;7542;49.078;9.194;2023-04-24T02:40:12;97516.81;;;29.42;33.34
14902;BME280;7542;49.078;9.194;2023-04-24T02:41:14;97514.91;;;29.43;33.68
14902;BME280;7542;49.078;9.194;2023-04-24T02:42:16;97523.31;;;29.41;33.53
14902;BME280;7542;49.078;9.194;2023-04-24T02:43:18;97524.41;;;29.40;33.23
14902;BME280;7542;49.078;9.194;2023-04-24T02:44:21;97521.25;;;29.38;33.25
14902;BME280;7542;49.078;9.194;2023-04-24T02:45:24;97519.34;;;29.39;33.27
14902;BME280;7542;49.078;9.194;2023-04-24T02:46:26;97514.72;;;29.39;33.02
14902;BME280;7542;49.078;9.194;2023-04-24T02:47:28;97517.75;;;29.38;33.44
14902;BME280;7542;49.078;9.194;2023-04-24T02:48:30;97506.97;;;29.38;33.26
14902;BME280;7542;49.078;9.194;2023-04-24T02:49:33;97504.25;;;29.38;33.32
14902;BME280;7542;49.078;9.194;2023-04-24T02:50:35;97505.03;;;29.38;32.89
14902;BME280;7542;49.078;9.194;2023-04-24T02:51:37;97509.66;;;29.38;33.33
14902;BME280;7542;49.078;9.194;2023-04-24T02:52:42;97512.69;;;29.36;33.11
14902;BME280;7542;49.078;9.194;2023-04-24T02:53:44;97515.38;;;29.36;33.49
14902;BME280;7542;49.078;9.194;2023-04-24T02:54:46;97509.19;;;29.36;33.07
14902;BME280;7542;49.078;9.194;2023-04-24T02:55:48;97504.91;;;29.35;33.12
14902;BME280;7542;49.078;9.194;2023-04-24T02:56:50;97500.94;;;29.32;33.08
14902;BME280;7542;49.078;9.194;2023-04-24T02:57:52;97504.44;;;29.33;33.04
14902;BME280;7542;49.078;9.194;2023-04-24T02:58:54;97509.81;;;29.33;33.51
14902;BME280;7542;49.078;9.194;2023-04-24T02:59:56;97501.25;;;29.31;33.48
14902;BME280;7542;49.078;9.194;2023-04-24T03:00:58;97508.72;;;29.34;33.35
14902;BME280;7542;49.078;9.194;2023-04-24T03:02:00;97508.25;;;29.32;33.15
14902;BME280;7542;49.078;9.194;2023-04-24T03:03:03;97513.16;;;29.30;33.02
14902;BME280;7542;49.078;9.194;2023-04-24T03:04:05;97508.25;;;29.32;33.36
14902;BME280;7542;49.078;9.194;2023-04-24T03:05:08;97509.34;;;29.31;32.97
14902;BME280;7542;49.078;9.194;2023-04-24T03:06:14;97511.56;;;29.29;33.47
14902;BME280;7542;49.078;9.194;2023-04-24T03:07:16;97507.28;;;29.28;33.45
14902;BME280;7542;49.078;9.194;2023-04-24T03:08:17;97504.25;;;29.29;33.16
14902;BME280;7542;49.078;9.194;2023-04-24T03:09:21;97506.16;;;29.29;33.46
14902;BME280;7542;49.078;9.194;2023-04-24T03:10:23;97495.34;;;29.29;33.28
14902;BME280;7542;49.078;9.194;2023-04-24T03:11:25;97501.88;;;29.28;33.25
14902;BME280;7542;49.078;9.194;2023-04-24T03:12:27;97497.91;;;29.25;33.19
14902;BME280;7542;49.078;9.194;2023-04-24T03:13:29;97500.28;;;29.27;33.33
14902;BME280;7542;49.078;9.194;2023-04-24T03:14:34;97502.66;;;29.28;33.15
14902;BME280;7542;49.078;9.194;2023-04-24T03:15:38;97502.97;;;29.27;33.52
14902;BME280;7542;49.078;9.194;2023-04-24T03:16:40;97504.41;;;29.24;33.31
14902;BME280;7542;49.078;9.194;2023-04-24T03:17:42;97509.03;;;29.24;33.13
14902;BME280;7542;49.078;9.194;2023-04-24T03:18:44;97499.03;;;29.24;33.20
14902;BME280;7542;49.078;9.194;2023-04-24T03:19:46;97503.31;;;29.25;33.41
14902;BME280;7542;49.078;9.194;2023-04-24T03:20:48;97497.13;;;29.25;33.51
14902;BME280;7542;49.078;9.194;2023-04-24T03:21:50;97505.84;;;29.22;33.27
14902;BME280;7542;49.078;9.194;2023-04-24T03:22:52;97503.16;;;29.22;33.26
14902;BME280;7542;49.078;9.194;2023-04-24T03:23:54;97500.94;;;29.24;33.06
14902;BME280;7542;49.078;9.194;2023-04-24T03:24:56;97492.34;;;29.22;33.33
14902;BME280;7542;49.078;9.194;2023-04-24T03:25:58;97496.97;;;29.21;32.94
14902;BME280;7542;49.078;9.194;2023-04-24T03:27:00;97488.06;;;29.21;32.95
14902;BME280;7542;49.078;9.194;2023-04-24T03:28:02;97492.34;;;29.22;33.33
14902;BME280;7542;49.078;9.194;2023-04-24T03:29:04;97488.06;;;29.21;32.99
14902;BME280;7542;49.078;9.194;2023-04-24T03:30:07;97488.06;;;29.21;33.47
14902;BME280;7542;49.078;9.194;2023-04-24T03:31:09;97490.44;;;29.22;33.38
14902;BME280;7542;49.078;9.194;2023-04-24T03:32:11;97498.88;;;29.21;33.03
14902;BME280;7542;49.078;9.194;2023-04-24T03:33:13;97497.75;;;29.22;33.51
14902;BME280;7542;49.078;9.194;2023-04-24T03:34:17;97493.47;;;29.21;33.18
14902;BME280;7542;49.078;9.194;2023-04-24T03:35:19;97496.78;;;29.17;32.99
14902;BME280;7542;49.078;9.194;2023-04-24T03:36:21;97499.16;;;29.19;33.18
14902;BME280;7542;49.078;9.194;2023-04-24T03:37:23;97497.91;;;29.16;33.45
14902;BME280;7542;49.078;9.194;2023-04-24T03:38:25;97499.16;;;29.19;33.10
14902;BME280;7542;49.078;9.194;2023-04-24T03:39:27;97494.88;;;29.18;33.45
14902;BME280;7542;49.078;9.194;2023-04-24T03:40:29;97501.72;;;29.15;33.45
14902;BME280;7542;49.078;9.194;2023-04-24T03:41:31;97495.19;;;29.16;33.03
14902;BME280;7542;49.078;9.194;2023-04-24T03:42:33;97495.19;;;29.16;33.10
14902;BME280;7542;49.078;9.194;2023-04-24T03:43:37;97499.81;;;29.16;33.21
14902;BME280;7542;49.078;9.194;2023-04-24T03:44:39;97497.44;;;29.14;33.21
14902;BME280;7542;49.078;9.194;2023-04-24T03:45:41;97496.31;;;29.15;33.33
14902;BME280;7542;49.078;9.194;2023-04-24T03:46:44;97493.94;;;29.14;33.30
14902;BME280;7542;49.078;9.194;2023-04-24T03:47:46;97501.72;;;29.15;33.19
14902;BME280;7542;49.078;9.194;2023-04-24T03:48:48;97494.41;;;29.16;33.05
14902;BME280;7542;49.078;9.194;2023-04-24T03:49:50;97496.16;;;29.12;32.95
14902;BME280;7542;49.078;9.194;2023-04-24T03:50:52;97499.00;;;29.15;33.07
14902;BME280;7542;49.078;9.194;2023-04-24T03:51:54;97509.66;;;29.12;33.11
14902;BME280;7542;49.078;9.194;2023-04-24T03:52:56;97502.03;;;29.14;33.39
14902;BME280;7542;49.078;9.194;2023-04-24T03:53:58;97498.88;;;29.12;32.80
14902;BME280;7542;49.078;9.194;2023-04-24T03:55:00;97498.88;;;29.12;32.84
14902;BME280;7542;49.078;9.194;2023-04-24T03:56:02;97503.47;;;29.11;33.26
14902;BME280;7542;49.078;9.194;2023-04-24T03:57:04;97508.53;;;29.13;33.31
14902;BME280;7542;49.078;9.194;2023-04-24T03:58:06;97509.19;;;29.10;33.25
14902;BME280;7542;49.078;9.194;2023-04-24T03:59:09;97525.06;;;29.11;32.93
14902;BME280;7542;49.078;9.194;2023-04-24T04:00:12;97522.69;;;29.10;33.33
14902;BME280;7542;49.078;9.194;2023-04-24T04:01:14;97526.97;;;29.11;33.04
14902;BME280;7542;49.078;9.194;2023-04-24T04:02:18;97523.47;;;29.10;32.81
14902;BME280;7542;49.078;9.194;2023-04-24T04:03:20;97530.78;;;29.10;33.11
14902;BME280;7542;49.078;9.194;2023-04-24T04:04:23;97529.16;;;29.09;32.88
14902;BME280;7542;49.078;9.194;2023-04-24T04:05:25;97538.09;;;29.09;33.29
14902;BME280;7542;49.078;9.194;2023-04-24T04:06:27;97530.59;;;29.06;33.40
14902;BME280;7542;49.078;9.194;2023-04-24T04:07:30;97537.91;;;29.06;33.15
14902;BME280;7542;49.078;9.194;2023-04-24T04:08:32;97536.31;;;29.05;33.04
14902;BME280;7542;49.078;9.194;2023-04-24T04:09:34;97545.22;;;29.05;33.11
14902;BME280;7542;49.078;9.194;2023-04-24T04:10:36;97554.88;;;29.06;33.20
14902;BME280;7542;49.078;9.194;2023-04-24T04:11:39;97552.19;;;29.06;33.30
14902;BME280;7542;49.078;9.194;2023-04-24T04:12:41;97555.53;;;29.03;33.29
14902;BME280;7542;49.078;9.194;2023-04-24T04:13:43;97547.91;;;29.05;33.36
14902;BME280;7542;49.078;9.194;2023-04-24T04:14:45;97549.03;;;29.04;33.36
14902;BME280;7542;49.078;9.194;2023-04-24T04:15:47;97554.41;;;29.04;33.50
14902;BME280;7542;49.078;9.194;2023-04-24T04:16:49;97554.75;;;29.03;33.09
14902;BME280;7542;49.078;9.194;2023-04-24T04:17:55;97560.94;;;29.03;32.97
14902;BME280;7542;49.078;9.194;2023-04-24T04:18:57;97553.94;;;29.02;33.02
14902;BME280;7542;49.078;9.194;2023-04-24T04:19:59;97562.03;;;29.02;33.17
14902;BME280;7542;49.078;9.194;2023-04-24T04:21:01;97561.25;;;29.02;33.01
14902;BME280;7542;49.078;9.194;2023-04-24T04:22:03;97562.84;;;29.03;33.11
14902;BME280;7542;49.078;9.194;2023-04-24T04:23:05;97571.72;;;29.03;33.13
14902;BME280;7542;49.078;9.194;2023-04-24T04:24:08;97575.84;;;29.01;33.04
14902;BME280;7542;49.078;9.194;2023-04-24T04:25:11;97577.44;;;29.02;33.42
14902;BME280;7542;49.078;9.194;2023-04-24T04:26:15;97580.63;;;29.04;33.32
14902;BME280;7542;49.078;9.194;2023-04-24T04:27:18;97597.13;;;29.02;33.36
14902;BME280;7542;49.078;9.194;2023-04-24T04:28:20;97597.13;;;29.02;33.08
14902;BME280;7542;49.078;9.194;2023-04-24T04:29:23;97595.53;;;29.01;33.28
14902;BME280;7542;49.078;9.194;2023-04-24T04:30:25;97603.00;;;29.04;33.26
14902;BME280;7542;49.078;9.194;2023-04-24T04:31:27;97599.81;;;29.02;33.05
14902;BME280;7542;49.078;9.194;2023-04-24T04:32:32;97598.72;;;29.03;33.14
14902;BME280;7542;49.078;9.194;2023-04-24T04:33:35;97594.91;;;29.04;33.02
14902;BME280;7542;49.078;9.194;2023-04-24T04:34:37;97594.09;;;29.04;33.22
14902;BME280;7542;49.078;9.194;2023-04-24T04:35:41;97586.34;;;29.02;33.35
14902;BME280;7542;49.078;9.194;2023-04-24T04:36:44;97587.44;;;29.01;33.00
14902;BME280;7542;49.078;9.194;2023-04-24T04:37:47;97595.53;;;29.01;33.40
14902;BME280;7542;49.078;9.194;2023-04-24T04:38:49;97602.53;;;29.02;33.17
14902;BME280;7542;49.078;9.194;2023-04-24T04:39:51;97610.16;;;29.00;32.97
14902;BME280;7542;49.078;9.194;2023-04-24T04:40:55;97612.53;;;29.02;33.06
14902;BME280;7542;49.078;9.194;2023-04-24T04:42:01;97619.84;;;29.01;33.13
14902;BME280;7542;49.078;9.194;2023-04-24T04:43:03;97606.66;;;29.00;33.07
14902;BME280;7542;49.078;9.194;2023-04-24T04:44:06;97617.94;;;29.02;33.03
14902;BME280;7542;49.078;9.194;2023-04-24T04:45:10;97622.53;;;29.01;33.39
14902;BME280;7542;49.078;9.194;2023-04-24T04:46:13;97615.53;;;29.00;33.14
14902;BME280;7542;49.078;9.194;2023-04-24T04:47:15;97618.25;;;29.00;33.11
14902;BME280;7542;49.078;9.194;2023-04-24T04:48:18;97617.78;;;28.98;33.36
14902;BME280;7542;49.078;9.194;2023-04-24T04:49:20;97625.03;;;28.98;33.27
14902;BME280;7542;49.078;9.194;2023-04-24T04:50:23;97622.84;;;29.00;33.03
14902;BME280;7542;49.078;9.194;2023-04-24T04:51:25;97616.94;;;28.98;33.25
14902;BME280;7542;49.078;9.194;2023-04-24T04:52:27;97619.97;;;28.96;33.23
14902;BME280;7542;49.078;9.194;2023-04-24T04:53:29;97621.53;;;28.97;33.32
14902;BME280;7542;49.078;9.194;2023-04-24T04:54:31;97619.16;;;28.96;33.57
14902;BME280;7542;49.078;9.194;2023-04-24T04:55:34;97626.47;;;28.95;33.15
14902;BME280;7542;49.078;9.194;2023-04-24T04:56:37;97619.16;;;28.96;33.07
14902;BME280;7542;49.078;9.194;2023-04-24T04:57:39;97623.78;;;28.95;33.08
14902;BME280;7542;49.078;9.194;2023-04-24T04:58:41;97620.28;;;28.95;33.20
14902;BME280;7542;49.078;9.194;2023-04-24T04:59:43;97622.97;;;28.95;33.51
14902;BME280;7542;49.078;9.194;2023-04-24T05:00:46;97626.78;;;28.94;33.24
14902;BME280;7542;49.078;9.194;2023-04-24T05:01:48;97623.78;;;28.95;33.33
14902;BME280;7542;49.078;9.194;2023-04-24T05:02:50;97627.56;;;28.94;33.33
14902;BME280;7542;49.078;9.194;2023-04-24T05:03:53;97627.09;;;28.92;32.99
14902;BME280;7542;49.078;9.194;2023-04-24T05:04:55;97631.38;;;28.93;33.21
14902;BME280;7542;49.078;9.194;2023-04-24T05:05:58;97632.50;;;28.92;32.84
14902;BME280;7542;49.078;9.194;2023-04-24T05:07:00;97634.41;;;28.92;33.12
14902;BME280;7542;49.078;9.194;2023-04-24T05:08:02;97639.00;;;28.91;33.43
14902;BME280;7542;49.078;9.194;2023-04-24T05:09:06;97636.31;;;28.91;33.25
14902;BME280;7542;49.078;9.194;2023-04-24T05:10:09;97639.00;;;28.91;33.20
14902;BME280;7542;49.078;9.194;2023-04-24T05:11:14;97643.38;;;28.87;33.12
14902;BME280;7542;49.078;9.194;2023-04-24T05:12:16;97650.91;;;28.90;33.38
14902;BME280;7542;49.078;9.194;2023-04-24T05:13:20;97648.22;;;28.90;33.45
14902;BME280;7542;49.078;9.194;2023-04-24T05:14:36;97659.00;;;28.90;33.43
14902;BME280;7542;49.078;9.194;2023-04-24T05:15:38;97653.13;;;28.88;33.31
14902;BME280;7542;49.078;9.194;2023-04-24T05:16:41;97657.41;;;28.89;33.14
14902;BME280;7542;49.078;9.194;2023-04-24T05:17:43;97655.28;;;28.86;33.18
14902;BME280;7542;49.078;9.194;2023-04-24T05:18:45;97656.41;;;28.85;33.10
14902;BME280;7542;49.078;9.194;2023-04-24T05:19:46;97661.78;;;28.85;33.40
14902;BME280;7542;49.078;9.194;2023-04-24T05:20:50;97664.50;;;28.85;33.43
14902;BME280;7542;49.078;9.194;2023-04-24T05:21:51;97668.78;;;28.86;33.11
14902;BME280;7542;49.078;9.194;2023-04-24T05:22:54;97660.22;;;28.84;33.16
14902;BME280;7542;49.078;9.194;2023-04-24T05:23:56;97669.41;;;28.83;33.33
14902;BME280;7542;49.078;9.194;2023-04-24T05:24:58;97679.88;;;28.84;33.26
14902;BME280;7542;49.078;9.194;2023-04-24T05:26:00;97676.41;;;28.84;33.21
14902;BME280;7542;49.078;9.194;2023-04-24T05:27:03;97677.81;;;28.81;33.42
14902;BME280;7542;49.078;9.194;2023-04-24T05:28:06;97671.63;;;28.81;33.58
14902;BME280;7542;49.078;9.194;2023-04-24T05:29:08;97676.72;;;28.82;33.17
14902;BME280;7542;49.078;9.194;2023-04-24T05:30:10;97687.81;;;28.81;33.60
14902;BME280;7542;49.078;9.194;2023-04-24T05:31:12;97689.41;;;28.82;33.38
14902;BME280;7542;49.078;9.194;2023-04-24T05:32:14;97686.22;;;28.80;33.56
14902;BME280;7542;49.078;9.194;2023-04-24T05:33:18;97688.63;;;28.81;33.58
14902;BME280;7542;49.078;9.194;2023-04-24T05:34:20;97695.44;;;28.79;33.28
14902;BME280;7542;49.078;9.194;2023-04-24T05:35:22;97697.03;;;28.80;33.44
14902;BME280;7542;49.078;9.194;2023-04-24T05:36:24;97708.91;;;28.79;33.59
14902;BME280;7542;49.078;9.194;2023-04-24T05:37:26;97710.03;;;28.78;33.34